Time;durP1;ratioP1;P1;durP2;ratioP2;P2;SDS_P1;SDS_P2;PMS_P1;PMS_P2;Temp;Humidity;BMP_temperature;BMP_pressure;BME280_temperature;BME280_humidity;BME280_pressure;Samples;Min_cycle;Max_cycle;Signal;HPM_P1;HPM_P2
2023/04/22 00:00:16;;;;;;;15.00;5.60;;;;;;;8.90;77.79;99740.63;1718710;83;21086;-57
2023/04/22 00:02:45;;;;;;;21.00;6.15;;;;;;;8.87;77.94;99735.56;1718686;83;21099;-55
2023/04/22 00:05:17;;;;;;;14.70;5.62;;;;;;;8.88;78.02;99737.77;1718900;83;21011;-55
2023/04/22 00:07:47;;;;;;;22.20;6.25;;;;;;;8.87;78.04;99737.45;1703980;83;21088;-54
2023/04/22 00:10:16;;;;;;;15.40;6.17;;;;;;;8.83;78.12;99730.71;1700848;84;21083;-54
2023/04/22 00:12:47;;;;;;;20.10;6.53;;;;;;;8.79;78.11;99732.16;1700652;84;21064;-54
2023/04/22 00:15:20;;;;;;;15.85;6.05;;;;;;;8.75;78.15;99726.78;1700978;84;21040;-55
2023/04/22 00:17:48;;;;;;;18.57;6.30;;;;;;;8.73;78.14;99731.09;1700714;84;21071;-56
2023/04/22 00:20:24;;;;;;;19.20;6.80;;;;;;;8.70;78.15;99733.38;1700865;84;21089;-55
2023/04/22 00:22:50;;;;;;;18.73;7.67;;;;;;;8.66;78.23;99724.75;1666504;86;21048;-55
2023/04/22 00:25:19;;;;;;;22.65;8.85;;;;;;;8.64;78.25;99721.90;1700797;84;21067;-56
2023/04/22 00:27:48;;;;;;;26.90;8.98;;;;;;;8.61;78.29;99727.24;1701046;84;21095;-55
2023/04/22 00:30:17;;;;;;;21.02;8.35;;;;;;;8.61;78.42;99725.03;1701014;84;21064;-55
2023/04/22 00:32:48;;;;;;;25.88;8.30;;;;;;;8.62;78.52;99730.81;1701106;84;21098;-54
2023/04/22 00:35:16;;;;;;;24.63;8.05;;;;;;;8.57;78.42;99741.82;1701083;84;21047;-55
2023/04/22 00:37:45;;;;;;;19.27;8.18;;;;;;;8.53;78.60;99739.17;1700775;84;21437;-56
2023/04/22 00:40:14;;;;;;;16.40;7.72;;;;;;;8.52;78.78;99741.58;1700988;84;21036;-55
2023/04/22 00:42:44;;;;;;;15.72;7.15;;;;;;;8.54;78.92;99739.48;1700897;84;21577;-55
2023/04/22 00:45:16;;;;;;;15.25;6.45;;;;;;;8.62;78.84;99745.31;1701439;84;21076;-55
2023/04/22 00:47:46;;;;;;;18.27;7.17;;;;;;;8.67;78.59;99740.61;1701575;84;21073;-55
2023/04/22 00:50:15;;;;;;;18.70;7.58;;;;;;;8.67;78.19;99745.55;1701763;84;21083;-55
2023/04/22 00:52:44;;;;;;;21.73;7.70;;;;;;;8.68;77.95;99742.30;1702418;84;21020;-56
2023/04/22 00:55:13;;;;;;;13.93;6.30;;;;;;;8.68;77.66;99745.03;1701795;84;21069;-55
2023/04/22 00:57:42;;;;;;;16.17;7.12;;;;;;;8.66;77.49;99747.95;1667877;84;21032;-56
2023/04/22 01:00:11;;;;;;;16.23;6.62;;;;;;;8.68;77.22;99747.23;1667751;84;21043;-56
2023/04/22 01:02:41;;;;;;;15.68;6.78;;;;;;;8.70;76.89;99737.47;1700988;84;21083;-56
2023/04/22 01:05:10;;;;;;;14.98;6.50;;;;;;;8.72;76.45;99737.59;1701008;84;21036;-56
2023/04/22 01:07:40;;;;;;;12.50;6.25;;;;;;;8.76;75.77;99736.67;1711800;83;21620;-57
2023/04/22 01:10:10;;;;;;;16.93;6.08;;;;;;;8.79;75.22;99740.36;1718625;83;21012;-54
2023/04/22 01:12:39;;;;;;;11.00;5.83;;;;;;;8.83;74.65;99743.00;1718937;83;21043;-56
2023/04/22 01:15:10;;;;;;;12.18;6.00;;;;;;;8.85;74.08;99739.55;1718873;83;21102;-56
2023/04/22 01:17:39;;;;;;;13.43;5.97;;;;;;;8.86;73.43;99741.23;1696699;83;21071;-56
2023/04/22 01:20:09;;;;;;;11.83;6.40;;;;;;;8.87;72.94;99744.28;1718876;83;21071;-55
2023/04/22 01:22:41;;;;;;;11.95;6.00;;;;;;;8.88;72.71;99745.45;1718927;83;21035;-54
2023/04/22 01:25:10;;;;;;;12.95;6.28;;;;;;;8.90;72.29;99747.98;1719044;83;21522;-57
2023/04/22 01:27:40;;;;;;;9.83;5.97;;;;;;;8.91;71.95;99741.47;1718848;83;21064;-56
2023/04/22 01:30:10;;;;;;;12.10;6.40;;;;;;;8.93;71.44;99744.84;1718804;83;21114;-55
2023/04/22 01:32:40;;;;;;;13.32;5.90;;;;;;;8.92;71.00;99743.67;1718767;83;21044;-55
2023/04/22 01:35:09;;;;;;;11.25;5.55;;;;;;;8.92;70.63;99739.58;1718638;83;21684;-56
2023/04/22 01:37:38;;;;;;;13.62;5.85;;;;;;;8.92;70.26;99744.52;1718569;83;21074;-56
2023/04/22 01:40:08;;;;;;;17.23;7.45;;;;;;;8.92;69.79;99743.67;1718814;83;21039;-55
2023/04/22 01:42:38;;;;;;;13.95;6.45;;;;;;;8.87;69.64;99742.39;1718908;83;21047;-56
2023/04/22 01:45:08;;;;;;;13.40;6.00;;;;;;;8.83;69.75;99740.27;1719058;83;21008;-55
2023/04/22 01:47:39;;;;;;;13.55;6.58;;;;;;;8.79;69.70;99751.28;1718738;83;21451;-55
2023/04/22 01:50:09;;;;;;;17.70;7.00;;;;;;;8.78;69.73;99743.61;1718656;83;21075;-55
2023/04/22 01:52:40;;;;;;;14.55;6.83;;;;;;;8.76;69.59;99744.34;1718599;83;21475;-56
2023/04/22 01:55:09;;;;;;;13.65;5.78;;;;;;;8.73;69.57;99752.09;1718999;83;21007;-55
2023/04/22 01:57:38;;;;;;;12.37;6.08;;;;;;;8.72;69.46;99753.14;1718907;83;21110;-55
2023/04/22 02:00:08;;;;;;;13.58;6.58;;;;;;;8.71;69.32;99750.08;1718973;83;21055;-55
2023/04/22 02:02:40;;;;;;;17.17;6.83;;;;;;;8.69;69.09;99752.17;1719024;83;21027;-55
2023/04/22 02:05:09;;;;;;;13.00;6.55;;;;;;;8.69;68.83;99756.27;1718741;83;21058;-56
2023/04/22 02:07:38;;;;;;;17.73;6.72;;;;;;;8.66;68.73;99750.69;1719421;83;21055;-56
2023/04/22 02:10:10;;;;;;;10.63;5.80;;;;;;;8.67;68.61;99754.27;1720849;83;21066;-57
2023/04/22 02:12:39;;;;;;;11.40;6.22;;;;;;;8.66;68.36;99757.52;1720883;83;21439;-55
2023/04/22 02:15:10;;;;;;;14.55;6.53;;;;;;;8.62;68.16;99756.23;1721184;83;21023;-56
2023/04/22 02:17:41;;;;;;;11.65;5.90;;;;;;;8.62;68.03;99762.22;1720724;83;21031;-56
2023/04/22 02:20:11;;;;;;;17.40;6.37;;;;;;;8.62;67.94;99766.31;1721166;83;21091;-57
2023/04/22 02:22:42;;;;;;;27.02;6.85;;;;;;;8.60;67.70;99760.20;1720891;83;21031;-55
2023/04/22 02:25:12;;;;;;;30.37;7.28;;;;;;;8.58;67.47;99761.25;1720764;83;21094;-55
2023/04/22 02:27:41;;;;;;;13.10;5.15;;;;;;;8.58;67.38;99758.52;1720799;83;21042;-55
2023/04/22 02:30:11;;;;;;;12.73;5.35;;;;;;;8.59;67.09;99756.63;1720811;83;21083;-56
2023/04/22 02:32:40;;;;;;;13.40;5.65;;;;;;;8.60;66.76;99758.32;1720625;83;20996;-55
2023/04/22 02:35:10;;;;;;;11.25;5.33;;;;;;;8.61;66.55;99760.01;1720897;83;21050;-56
2023/04/22 02:37:39;;;;;;;9.20;5.35;;;;;;;8.62;66.38;99760.85;1720710;83;21035;-57
2023/04/22 02:40:10;;;;;;;9.50;5.40;;;;;;;8.62;66.19;99763.06;1720912;83;21619;-55
2023/04/22 02:42:39;;;;;;;11.40;5.10;;;;;;;8.62;66.03;99759.48;1720721;83;21508;-56
2023/04/22 02:45:10;;;;;;;9.10;4.90;;;;;;;8.62;65.95;99760.85;1720774;83;21122;-56
2023/04/22 02:47:39;;;;;;;11.35;5.30;;;;;;;8.64;65.73;99760.13;1720930;83;21071;-55
2023/04/22 02:50:09;;;;;;;13.83;5.37;;;;;;;8.62;65.67;99757.59;1720847;83;21059;-55
2023/04/22 02:52:38;;;;;;;16.73;5.80;;;;;;;8.62;65.32;99755.39;1721031;83;21127;-56
2023/04/22 02:55:08;;;;;;;11.55;5.72;;;;;;;8.60;65.10;99762.94;1720844;83;21052;-55
2023/04/22 02:57:37;;;;;;;11.90;6.00;;;;;;;8.57;65.02;99755.47;1720874;83;21040;-56
2023/04/22 03:00:09;;;;;;;9.98;5.47;;;;;;;8.57;65.09;99761.45;1720716;83;21003;-55
2023/04/22 03:02:38;;;;;;;15.65;6.15;;;;;;;8.55;65.10;99757.56;1720863;83;21485;-54
2023/04/22 03:05:09;;;;;;;10.32;6.17;;;;;;;8.58;64.98;99767.23;1717243;83;21124;-57
2023/04/22 03:07:38;;;;;;;14.18;5.85;;;;;;;8.56;64.93;99766.59;1716521;83;21083;-56
2023/04/22 03:10:08;;;;;;;10.28;5.22;;;;;;;8.55;64.83;99771.20;1683269;84;21056;-55
2023/04/22 03:12:38;;;;;;;9.40;5.10;;;;;;;8.56;64.76;99770.69;1653279;86;21104;-55
2023/04/22 03:15:08;;;;;;;14.05;5.87;;;;;;;8.57;64.73;99777.31;1653361;87;21035;-56
2023/04/22 03:17:37;;;;;;;11.12;5.30;;;;;;;8.58;64.62;99775.42;1653349;87;21510;-56
2023/04/22 03:20:10;;;;;;;9.45;5.22;;;;;;;8.58;64.61;99779.52;1682742;85;21108;-55
2023/04/22 03:22:39;;;;;;;10.78;5.05;;;;;;;8.60;64.59;99776.59;1685982;84;21044;-55
2023/04/22 03:25:10;;;;;;;10.48;5.30;;;;;;;8.60;64.25;99776.59;1686686;84;21095;-55
2023/04/22 03:27:39;;;;;;;13.53;5.53;;;;;;;8.60;64.17;99782.89;1681701;83;21067;-55
2023/04/22 03:30:09;;;;;;;9.38;5.33;;;;;;;8.60;64.04;99786.99;1685818;84;21064;-55
2023/04/22 03:32:39;;;;;;;10.82;5.90;;;;;;;8.63;64.05;99787.11;1659309;85;21044;-57
2023/04/22 03:35:10;;;;;;;10.00;5.85;;;;;;;8.64;63.98;99785.55;1678552;84;21474;-55
2023/04/22 03:37:39;;;;;;;13.40;7.95;;;;;;;8.68;64.03;99788.20;1683676;84;21031;-56
2023/04/22 03:40:10;;;;;;;13.85;7.90;;;;;;;8.71;63.94;99793.27;1682103;84;21012;-56
2023/04/22 03:42:41;;;;;;;16.30;8.00;;;;;;;8.76;63.72;99791.30;1681939;84;21111;-54
2023/04/22 03:45:10;;;;;;;18.10;8.43;;;;;;;8.80;63.76;99798.04;1685052;85;21035;-56
2023/04/22 03:47:41;;;;;;;12.98;7.92;;;;;;;8.84;63.66;99796.59;1683246;84;21447;-55
2023/04/22 03:50:12;;;;;;;13.62;8.08;;;;;;;8.88;63.50;99797.88;1679955;84;21036;-56
2023/04/22 03:52:43;;;;;;;14.15;7.53;;;;;;;8.91;63.31;99805.67;1682529;84;21060;-55
2023/04/22 03:55:12;;;;;;;14.75;7.08;;;;;;;8.95;63.33;99805.59;1682702;84;21050;-56
2023/04/22 03:57:41;;;;;;;12.03;5.83;;;;;;;9.00;63.41;99815.91;1681506;84;21103;-55
2023/04/22 04:00:14;;;;;;;10.05;5.80;;;;;;;9.02;63.18;99811.09;1680643;84;21019;-55
2023/04/22 04:02:45;;;;;;;13.90;5.92;;;;;;;9.03;62.96;99817.72;1669031;84;21040;-55
2023/04/22 04:05:16;;;;;;;13.90;5.60;;;;;;;9.03;62.98;99814.98;1693155;84;21007;-56
2023/04/22 04:07:45;;;;;;;17.30;6.17;;;;;;;9.10;62.86;99822.73;1693339;84;21092;-56
2023/04/22 04:10:14;;;;;;;14.90;5.72;;;;;;;9.15;62.77;99824.85;1718952;83;21070;-59
2023/04/22 04:12:43;;;;;;;15.53;5.53;;;;;;;9.18;62.60;99821.19;1720807;83;21003;-56
2023/04/22 04:15:12;;;;;;;11.05;6.00;;;;;;;9.23;62.64;99823.84;1720676;83;21007;-56
2023/04/22 04:17:41;;;;;;;13.38;5.87;;;;;;;9.27;62.68;99825.12;1720644;83;21063;-56
2023/04/22 04:20:12;;;;;;;15.95;6.35;;;;;;;9.32;62.61;99826.72;1720932;83;20983;-56
2023/04/22 04:22:42;;;;;;;14.87;5.92;;;;;;;9.38;62.57;99827.27;1721510;83;21048;-56
2023/04/22 04:25:11;;;;;;;15.20;6.28;;;;;;;9.45;62.49;99829.50;1723355;83;21043;-56
2023/04/22 04:27:41;;;;;;;12.15;5.75;;;;;;;9.54;62.01;99837.32;1722332;83;21447;-54
2023/04/22 04:30:13;;;;;;;10.30;5.78;;;;;;;9.61;61.82;99835.98;1722206;83;21047;-55
2023/04/22 04:32:44;;;;;;;9.43;5.37;;;;;;;9.66;61.36;99836.73;1722731;83;21011;-55
2023/04/22 04:35:14;;;;;;;10.38;5.85;;;;;;;9.72;61.32;99839.48;1721290;83;21051;-56
2023/04/22 04:37:45;;;;;;;12.03;5.92;;;;;;;9.79;61.23;99843.11;1720362;83;21259;-55
2023/04/22 04:40:15;;;;;;;10.35;5.45;;;;;;;9.82;60.92;99840.48;1720931;83;21027;-57
2023/04/22 04:42:45;;;;;;;10.25;5.40;;;;;;;9.87;60.97;99843.97;1720422;83;21031;-56
2023/04/22 04:45:16;;;;;;;11.65;5.47;;;;;;;9.92;60.77;99845.56;1720420;83;21031;-55
2023/04/22 04:47:45;;;;;;;12.07;6.12;;;;;;;9.99;60.54;99853.27;1720725;83;21051;-56
2023/04/22 04:50:16;;;;;;;15.00;6.17;;;;;;;10.05;60.25;99848.33;1719982;83;21035;-56
2023/04/22 04:52:51;;;;;;;10.10;5.80;;;;;;;10.11;59.78;99856.55;1720803;83;21441;-54
2023/04/22 04:55:19;;;;;;;18.32;5.67;;;;;;;10.17;59.15;99852.13;1720757;83;21051;-56
2023/04/22 04:57:50;;;;;;;10.82;5.60;;;;;;;10.24;58.99;99850.28;1720739;83;21059;-57
2023/04/22 05:00:19;;;;;;;12.23;5.92;;;;;;;10.31;58.48;99855.77;1720728;83;20999;-56
2023/04/22 05:02:48;;;;;;;11.05;5.87;;;;;;;10.35;57.97;99848.28;1720403;83;21074;-55
2023/04/22 05:05:18;;;;;;;10.58;5.50;;;;;;;10.39;57.71;99855.55;1698165;83;21090;-56
2023/04/22 05:07:47;;;;;;;13.38;5.33;;;;;;;10.39;57.33;99855.03;1720965;83;21105;-57
2023/04/22 05:10:17;;;;;;;13.35;5.58;;;;;;;10.41;57.01;99862.54;1691067;83;21546;-56
2023/04/22 05:12:46;;;;;;;11.22;6.40;;;;;;;10.44;56.79;99856.64;1679697;84;21039;-55
2023/04/22 05:15:17;;;;;;;10.93;5.67;;;;;;;10.47;56.32;99861.70;1679512;84;21023;-56
2023/04/22 05:17:47;;;;;;;11.68;5.87;;;;;;;10.51;56.07;99862.64;1680312;85;21035;-55
2023/04/22 05:20:16;;;;;;;11.95;5.33;;;;;;;10.54;55.95;99860.33;1679490;85;21055;-56
2023/04/22 05:22:47;;;;;;;13.15;5.62;;;;;;;10.57;55.53;99864.02;1679917;85;21059;-56
2023/04/22 05:25:16;;;;;;;12.00;5.62;;;;;;;10.59;54.80;99859.70;1652775;87;21505;-57
2023/04/22 05:27:47;;;;;;;10.78;5.42;;;;;;;10.59;54.75;99866.55;1650679;87;21491;-56
2023/04/22 05:30:17;;;;;;;8.58;5.58;;;;;;;10.63;54.60;99867.28;1626401;88;22081;-55
2023/04/22 05:32:47;;;;;;;8.35;5.17;;;;;;;10.66;54.65;99863.27;1653041;87;21534;-57
2023/04/22 05:35:17;;;;;;;8.78;5.35;;;;;;;10.70;54.17;99866.75;1651444;85;21063;-56
2023/04/22 05:37:46;;;;;;;10.00;5.40;;;;;;;10.74;53.62;99870.75;1625053;87;21047;-57
2023/04/22 05:40:15;;;;;;;13.58;5.67;;;;;;;10.79;53.38;99872.86;1682894;85;21060;-57
2023/04/22 05:42:43;;;;;;;12.00;5.83;;;;;;;10.81;53.14;99863.89;1682772;84;21043;-55
2023/04/22 05:45:12;;;;;;;12.15;5.65;;;;;;;10.85;53.05;99872.01;1682425;84;21115;-55
2023/04/22 05:47:41;;;;;;;10.43;5.30;;;;;;;10.88;52.40;99869.38;1682032;84;21000;-56
2023/04/22 05:50:10;;;;;;;9.95;5.65;;;;;;;10.90;52.40;99872.21;1682950;84;21072;-57
2023/04/22 05:52:46;;;;;;;8.93;5.40;;;;;;;10.94;52.18;99878.95;1685345;84;21028;-56
2023/04/22 05:55:17;;;;;;;14.05;5.60;;;;;;;10.96;52.33;99876.84;1681612;84;21049;-57
2023/04/22 05:57:46;;;;;;;11.53;5.42;;;;;;;11.01;52.43;99877.58;1685180;84;21040;-56
2023/04/22 06:00:26;;;;;;;9.40;5.33;;;;;;;11.04;52.41;99873.03;1686684;84;21016;-55
2023/04/22 06:02:58;;;;;;;10.72;5.75;;;;;;;11.07;52.52;99873.48;1680975;84;21647;-60
2023/04/22 06:05:27;;;;;;;7.75;4.92;;;;;;;11.11;52.21;99879.37;1682560;84;21040;-57
2023/04/22 06:07:57;;;;;;;10.05;5.60;;;;;;;11.16;52.14;99879.58;1681598;85;20993;-55
2023/04/22 06:10:25;;;;;;;11.63;5.80;;;;;;;11.22;51.94;99884.73;1701304;83;21043;-56
2023/04/22 06:12:54;;;;;;;12.55;5.30;;;;;;;11.27;51.86;99878.08;1714011;84;21063;-56
2023/04/22 06:15:25;;;;;;;9.70;5.55;;;;;;;11.33;51.67;99888.19;1714285;84;21059;-56
2023/04/22 06:17:54;;;;;;;12.70;5.67;;;;;;;11.40;51.53;99882.15;1677994;85;20988;-56
2023/04/22 06:20:25;;;;;;;8.05;4.95;;;;;;;11.49;51.24;99878.11;1713987;84;21110;-58
2023/04/22 06:22:55;;;;;;;9.38;5.20;;;;;;;11.58;50.73;99880.92;1681774;85;21052;-56
2023/04/22 06:25:23;;;;;;;13.43;5.37;;;;;;;11.69;50.54;99873.38;1682352;85;21111;-56
2023/04/22 06:27:52;;;;;;;19.65;6.10;;;;;;;11.82;50.38;99876.66;1717087;83;21051;-56
2023/04/22 06:30:24;;;;;;;9.18;5.72;;;;;;;11.94;49.89;99873.53;1674855;85;21520;-56
2023/04/22 06:32:54;;;;;;;8.63;5.62;;;;;;;12.10;49.71;99879.57;1675024;85;21012;-54
2023/04/22 06:35:23;;;;;;;10.13;5.75;;;;;;;12.25;49.94;99876.83;1713892;84;21517;-57
2023/04/22 06:37:52;;;;;;;11.95;5.67;;;;;;;12.42;49.50;99879.07;1675174;85;21056;-57
2023/04/22 06:40:22;;;;;;;10.43;6.00;;;;;;;12.60;49.13;99880.52;1676240;84;21024;-56
2023/04/22 06:43:01;;;;;;;12.25;5.75;;;;;;;12.78;49.10;99880.58;1707101;84;21055;-57
2023/04/22 06:45:49;;;;;;;9.65;5.75;;;;;;;13.03;48.91;99880.59;1714235;84;21075;-56
2023/04/22 06:48:36;;;;;;;12.15;5.90;;;;;;;13.29;48.63;99889.98;1714038;83;21063;-57
2023/04/22 06:51:10;;;;;;;18.67;7.28;;;;;;;13.51;48.32;99888.98;1641940;84;21079;-56
2023/04/22 06:53:39;;;;;;;14.50;6.47;;;;;;;13.69;47.62;99895.05;1675159;84;21107;-57
2023/04/22 06:56:08;;;;;;;14.73;6.58;;;;;;;13.85;47.14;99890.83;1675660;84;21076;-57
2023/04/22 06:58:37;;;;;;;10.23;6.20;;;;;;;13.99;46.63;99890.95;1714365;84;21055;-57
2023/04/22 07:01:06;;;;;;;9.05;6.03;;;;;;;14.16;45.39;99890.61;1675989;85;21072;-57
2023/04/22 07:03:36;;;;;;;14.20;7.22;;;;;;;14.40;45.47;99886.59;1714481;84;21471;-56
2023/04/22 07:06:08;;;;;;;12.60;6.60;;;;;;;14.63;45.10;99890.81;1680438;84;21041;-57
2023/04/22 07:08:38;;;;;;;17.90;7.03;;;;;;;14.82;44.70;99893.78;1677917;83;21040;-57
2023/04/22 07:11:10;;;;;;;11.38;6.40;;;;;;;15.02;43.98;99900.91;1676653;84;21464;-58
2023/04/22 07:13:44;;;;;;;;;;;;;;;15.14;43.90;99898.45;1647901;87;21127;-56
2023/04/22 07:16:12;;;;;;;11.75;5.58;;;;;;;15.23;43.85;99897.55;1645487;87;20247;-56
2023/04/22 07:18:42;;;;;;;13.90;8.45;;;;;;;15.29;44.97;99892.98;1645553;87;21092;-57
2023/04/22 07:21:11;;;;;;;14.50;6.92;;;;;;;15.25;44.97;99892.63;1645549;87;21491;-55
2023/04/22 07:23:40;;;;;;;10.80;6.40;;;;;;;15.28;45.65;99901.81;1645395;87;21059;-58
2023/04/22 07:26:10;;;;;;;13.80;5.95;;;;;;;15.28;46.04;99901.81;1645552;87;21107;-58
2023/04/22 07:28:39;;;;;;;26.55;6.30;;;;;;;15.29;46.31;99905.41;1645409;87;21119;-57
2023/04/22 07:31:08;;;;;;;10.75;6.25;;;;;;;15.31;46.72;99910.98;1655159;84;21119;-56
2023/04/22 07:33:37;;;;;;;16.62;6.67;;;;;;;15.37;46.46;99910.56;1698603;84;21476;-56
2023/04/22 07:36:07;;;;;;;10.32;6.10;;;;;;;15.33;45.82;99912.97;1698768;84;21498;-57
2023/04/22 07:38:38;;;;;;;21.93;11.38;;;;;;;15.32;45.86;99907.69;1694646;84;21147;-57
2023/04/22 07:41:06;;;;;;;12.55;7.25;;;;;;;15.30;46.34;99913.45;1694369;84;21542;-55
2023/04/22 07:43:35;;;;;;;11.40;6.35;;;;;;;15.29;46.63;99913.15;1694655;85;21456;-57
2023/04/22 07:46:04;;;;;;;11.83;6.87;;;;;;;15.34;44.52;99918.79;1697563;84;21071;-57
2023/04/22 07:48:33;;;;;;;10.10;6.10;;;;;;;15.45;44.41;99915.72;1698289;84;21025;-59
2023/04/22 07:51:03;;;;;;;10.82;5.90;;;;;;;15.47;44.07;99921.30;1694787;82;21040;-59
2023/04/22 07:53:32;;;;;;;11.00;6.35;;;;;;;15.51;42.55;99925.26;1699009;84;21076;-57
2023/04/22 07:56:02;;;;;;;13.22;6.28;;;;;;;15.55;41.98;99920.93;1673627;84;21062;-57
2023/04/22 07:58:30;;;;;;;13.58;6.45;;;;;;;15.60;42.50;99924.92;1672214;84;21042;-58
2023/04/22 08:01:05;;;;;;;9.63;5.75;;;;;;;15.66;42.88;99935.03;1701017;84;21047;-58
2023/04/22 08:03:45;;;;;;;24.32;8.63;;;;;;;15.72;42.42;99929.91;1700940;83;21106;-57
2023/04/22 08:06:17;;;;;;;14.20;7.53;;;;;;;15.87;41.62;99935.77;1701469;84;21016;-57
2023/04/22 08:08:45;;;;;;;16.23;9.60;;;;;;;15.98;41.76;99933.52;1691215;84;21142;-57
2023/04/22 08:11:15;;;;;;;11.35;6.58;;;;;;;16.05;41.79;99934.77;1646124;86;21134;-56
2023/04/22 08:13:44;;;;;;;9.08;5.58;;;;;;;16.11;40.99;99930.47;1674317;85;21056;-57
2023/04/22 08:16:13;;;;;;;10.03;5.90;;;;;;;16.20;40.30;99928.70;1664862;86;21073;-57
2023/04/22 08:18:42;;;;;;;11.43;6.00;;;;;;;16.32;40.25;99930.91;1665091;85;21045;-56
2023/04/22 08:21:11;;;;;;;9.98;6.15;;;;;;;16.44;40.23;99924.78;1664805;86;21076;-54
2023/04/22 08:23:40;;;;;;;11.12;5.90;;;;;;;16.56;38.94;99930.25;1664694;85;21040;-58
2023/04/22 08:26:13;;;;;;;11.50;5.85;;;;;;;16.68;38.87;99930.52;1703549;84;21037;-57
2023/04/22 08:28:39;;;;;;;10.45;6.20;;;;;;;16.90;39.23;99932.55;1682631;85;21085;-57
2023/04/22 08:31:11;;;;;;;9.20;5.50;;;;;;;17.18;39.20;99933.88;1675949;85;21486;-58
2023/04/22 08:33:40;;;;;;;10.40;5.35;;;;;;;17.42;36.96;99931.21;1734644;81;21112;-58
2023/04/22 08:36:10;;;;;;;8.68;5.12;;;;;;;17.61;36.76;99929.57;1733661;83;21021;-58
2023/04/22 08:38:38;;;;;;;8.65;4.83;;;;;;;17.86;35.93;99932.72;1734009;83;21049;-57
2023/04/22 08:41:08;;;;;;;13.35;5.17;;;;;;;18.10;34.96;99931.08;1733745;82;21054;-58
2023/04/22 08:43:36;;;;;;;10.82;6.33;;;;;;;18.33;34.60;99934.99;1733896;82;20994;-58
2023/04/22 08:46:05;;;;;;;8.93;5.37;;;;;;;18.61;34.04;99933.39;1713325;83;21013;-57
2023/04/22 08:48:35;;;;;;;9.23;5.20;;;;;;;18.93;33.23;99936.78;1733774;83;21040;-57
2023/04/22 08:51:04;;;;;;;9.38;5.10;;;;;;;19.15;32.12;99926.41;1732229;82;21515;-58
2023/04/22 08:53:33;;;;;;;8.70;5.37;;;;;;;19.36;31.70;99931.56;1695096;84;21454;-57
2023/04/22 08:56:02;;;;;;;8.15;4.65;;;;;;;19.51;31.49;99928.92;1706515;84;21033;-58
2023/04/22 08:58:31;;;;;;;8.90;5.30;;;;;;;19.56;31.17;99935.09;1714227;84;21083;-59
2023/04/22 09:01:02;;;;;;;8.93;5.33;;;;;;;19.61;31.92;99935.13;1714070;84;21032;-57
2023/04/22 09:03:31;;;;;;;8.58;5.28;;;;;;;19.64;30.51;99937.37;1653188;85;21009;-58
2023/04/22 09:06:02;;;;;;;9.13;4.97;;;;;;;19.61;31.24;99935.13;1669745;84;21170;-58
2023/04/22 09:08:33;;;;;;;7.15;5.25;;;;;;;19.57;31.50;99939.00;1669366;85;21015;-58
2023/04/22 09:11:05;;;;;;;10.35;5.35;;;;;;;19.43;31.24;99940.50;1679242;85;21068;-57
2023/04/22 09:13:34;;;;;;;13.15;5.17;;;;;;;19.22;30.89;99942.30;1651331;86;21077;-59
2023/04/22 09:16:03;;;;;;;8.08;5.50;;;;;;;19.03;31.66;99940.19;1646478;87;21047;-58
2023/04/22 09:18:44;;;;;;;9.73;5.45;;;;;;;18.90;32.23;99940.08;1651451;86;21032;-58
2023/04/22 09:21:13;;;;;;;8.53;5.17;;;;;;;18.77;31.55;99939.09;1674011;83;21148;-59
2023/04/22 09:23:50;;;;;;;10.08;5.75;;;;;;;18.67;31.86;99938.44;1711580;84;21052;-58
2023/04/22 09:26:23;;;;;;;10.75;5.08;;;;;;;18.56;32.16;99938.02;1711865;83;21065;-58
2023/04/22 09:28:54;;;;;;;9.75;5.28;;;;;;;18.45;32.46;99943.16;1713693;84;21073;-58
2023/04/22 09:31:24;;;;;;;7.55;5.00;;;;;;;18.30;32.55;99940.51;1713812;84;21433;-56
2023/04/22 09:33:59;;;;;;;8.20;4.97;;;;;;;18.20;30.59;99943.13;1713769;84;21106;-57
2023/04/22 09:36:29;;;;;;;10.32;5.08;;;;;;;18.10;30.98;99939.40;1713796;83;21496;-57
2023/04/22 09:39:00;;;;;;;10.25;4.78;;;;;;;18.04;30.53;99943.49;1713993;84;21433;-56
2023/04/22 09:41:34;;;;;;;13.32;5.53;;;;;;;18.00;30.21;99944.27;1713629;84;21056;-56
2023/04/22 09:44:04;;;;;;;12.23;5.25;;;;;;;17.94;31.34;99950.30;1713775;84;21018;-56
2023/04/22 09:46:33;;;;;;;7.80;5.22;;;;;;;17.91;31.12;99949.97;1713901;84;20998;-57
2023/04/22 09:49:02;;;;;;;8.30;5.25;;;;;;;17.84;31.02;99948.77;1713770;84;21045;-56
2023/04/22 09:51:31;;;;;;;9.13;5.60;;;;;;;17.76;30.77;99945.61;1713934;83;21410;-58
2023/04/22 09:54:07;;;;;;;8.15;5.20;;;;;;;17.68;31.40;99951.04;1685564;85;21770;-58
2023/04/22 09:56:48;;;;;;;10.70;5.10;;;;;;;17.63;31.12;99957.86;1685746;85;21082;-57
2023/04/22 09:59:24;;;;;;;10.50;5.20;;;;;;;17.55;30.48;99944.41;1700786;84;21111;-56
2023/04/22 10:01:57;;;;;;;8.88;4.78;;;;;;;17.51;30.29;99945.47;1714996;84;21045;-57
2023/04/22 10:04:27;;;;;;;7.15;4.47;;;;;;;17.46;30.49;99946.78;1714739;84;21073;-56
2023/04/22 10:06:56;;;;;;;7.97;4.60;;;;;;;17.41;30.33;99952.24;1714426;84;21080;-57
2023/04/22 10:09:25;;;;;;;6.83;4.70;;;;;;;17.34;29.59;99948.27;1714745;84;21068;-56
2023/04/22 10:11:56;;;;;;;6.37;4.40;;;;;;;17.31;30.39;99944.61;1716475;83;21072;-56
2023/04/22 10:14:25;;;;;;;5.70;4.35;;;;;;;17.32;30.86;99944.07;1725757;83;21037;-57
2023/04/22 10:16:58;;;;;;;7.35;4.42;;;;;;;17.34;30.09;99941.34;1703046;84;21084;-57
2023/04/22 10:19:27;;;;;;;5.95;4.03;;;;;;;17.37;29.66;99942.22;1718483;83;21461;-56
2023/04/22 10:21:58;;;;;;;10.90;4.12;;;;;;;17.37;28.95;99951.91;1718658;83;21021;-56
2023/04/22 10:24:28;;;;;;;13.98;4.22;;;;;;;17.37;28.32;99933.06;1718500;83;21029;-57
2023/04/22 10:26:57;;;;;;;4.47;3.37;;;;;;;17.39;27.52;99948.34;1715826;83;21081;-58
2023/04/22 10:29:29;;;;;;;7.80;3.80;;;;;;;17.40;27.87;99939.48;1715447;83;21002;-56
2023/04/22 10:32:20;;;;;;;7.30;3.92;;;;;;;17.35;27.14;99941.63;1715276;83;21112;-56
2023/04/22 10:34:49;;;;;;;6.97;4.15;;;;;;;17.32;27.85;99935.77;1715822;83;21104;-55
2023/04/22 10:37:20;;;;;;;7.53;4.00;;;;;;;17.35;28.27;99936.64;1703043;84;21030;-56
2023/04/22 10:40:08;;;;;;;7.35;4.00;;;;;;;17.36;28.44;99939.16;1718214;83;21056;-57
2023/04/22 10:42:41;;;;;;;6.10;3.67;;;;;;;17.36;29.16;99936.39;1715953;83;21041;-56
2023/04/22 10:45:13;;;;;;;7.95;4.37;;;;;;;17.36;28.93;99940.54;1702931;84;21049;-57
2023/04/22 10:47:42;;;;;;;8.85;5.08;;;;;;;17.28;28.79;99929.89;1718330;83;21044;-56
2023/04/22 10:50:20;;;;;;;7.67;4.33;;;;;;;17.23;29.61;99939.50;1718429;83;21052;-57
2023/04/22 10:52:57;;;;;;;8.60;4.08;;;;;;;17.24;30.28;99934.80;1717362;83;21066;-55
2023/04/22 10:55:27;;;;;;;9.95;4.25;;;;;;;17.23;30.39;99923.44;1718768;83;21031;-55
2023/04/22 10:57:57;;;;;;;5.85;4.20;;;;;;;17.23;30.62;99935.89;1696986;83;21051;-56
2023/04/22 11:00:30;;;;;;;9.45;4.33;;;;;;;17.30;30.38;99931.86;1697342;84;21044;-56
2023/04/22 11:03:11;;;;;;;6.60;3.98;;;;;;;17.33;29.99;99932.73;1712957;84;21063;-55
2023/04/22 11:05:40;;;;;;;7.00;4.15;;;;;;;17.29;29.98;99941.26;1714187;84;21122;-56
2023/04/22 11:08:22;;;;;;;7.65;4.22;;;;;;;17.30;29.77;99934.63;1714428;84;21103;-57
2023/04/22 11:10:51;;;;;;;6.60;3.72;;;;;;;17.30;29.24;99938.78;1714441;83;21203;-53
2023/04/22 11:13:20;;;;;;;8.00;4.05;;;;;;;17.27;29.65;99932.37;1704512;84;21207;-55
2023/04/22 11:15:53;;;;;;;7.65;3.70;;;;;;;17.25;29.80;99937.86;1702408;84;21527;-56
2023/04/22 11:18:31;;;;;;;8.00;4.42;;;;;;;17.27;29.82;99935.68;1702718;83;21020;-57
2023/04/22 11:21:05;;;;;;;11.95;4.42;;;;;;;17.30;30.28;99941.55;1703039;84;21024;-56
2023/04/22 11:23:34;;;;;;;9.68;4.70;;;;;;;17.33;31.39;99941.05;1684951;84;21028;-58
2023/04/22 11:26:06;;;;;;;7.10;4.42;;;;;;;17.34;32.64;99945.49;1704106;84;21539;-57
2023/04/22 11:28:36;;;;;;;6.50;4.08;;;;;;;17.38;31.55;99946.66;1704388;84;21020;-56
2023/04/22 11:31:06;;;;;;;7.37;4.47;;;;;;;17.39;31.76;99951.11;1683382;84;21079;-55
2023/04/22 11:33:37;;;;;;;7.35;4.37;;;;;;;17.35;31.62;99944.40;1702320;84;21055;-57
2023/04/22 11:36:11;;;;;;;8.15;4.12;;;;;;;17.30;31.96;99950.41;1702182;84;21091;-57
2023/04/22 11:38:39;;;;;;;7.47;3.90;;;;;;;17.30;31.67;99956.78;1701851;84;21095;-56
2023/04/22 11:41:08;;;;;;;7.28;3.55;;;;;;;17.32;30.82;99957.91;1702274;84;21052;-57
2023/04/22 11:43:46;;;;;;;5.83;4.08;;;;;;;17.32;29.90;99953.21;1702311;84;21020;-57
2023/04/22 11:46:15;;;;;;;6.30;3.45;;;;;;;17.30;29.92;99952.63;1702089;84;21024;-56